Time;durP1;ratioP1;P1;durP2;ratioP2;P2;SDS_P1;SDS_P2;PMS_P1;PMS_P2;Temp;Humidity;BMP_temperature;BMP_pressure;BME280_temperature;BME280_humidity;BME280_pressure;Samples;Min_cycle;Max_cycle;Signal;HPM_P1;HPM_P2
2023/09/11 00:01:24;;;;;;;16.30;11.00;;;21.70;99.90;;;;;;4966604;28;20189;-64
2023/09/11 00:03:50;;;;;;;13.43;11.77;;;21.60;99.90;;;;;;4967270;28;20195;-64
2023/09/11 00:06:16;;;;;;;13.97;9.37;;;21.50;99.90;;;;;;4966499;28;20223;-64
2023/09/11 00:08:42;;;;;;;16.87;11.50;;;21.40;99.90;;;;;;4966662;28;20180;-64
2023/09/11 00:11:08;;;;;;;20.40;11.07;;;21.30;99.90;;;;;;4966665;28;20208;-64
2023/09/11 00:13:33;;;;;;;13.20;10.27;;;21.20;99.90;;;;;;4966630;28;20428;-64
2023/09/11 00:15:59;;;;;;;12.77;10.67;;;21.20;99.90;;;;;;4966775;28;20176;-64
2023/09/11 00:18:25;;;;;;;15.97;10.70;;;21.20;99.90;;;;;;4966580;28;20192;-64
2023/09/11 00:20:51;;;;;;;12.70;10.83;;;21.20;99.90;;;;;;4966448;28;20279;-64
2023/09/11 00:23:17;;;;;;;16.13;11.07;;;21.30;99.90;;;;;;4967050;28;20518;-64
2023/09/11 00:25:43;;;;;;;19.70;11.07;;;21.30;99.90;;;;;;4965938;28;21132;-64
2023/09/11 00:28:08;;;;;;;16.30;10.37;;;21.40;99.90;;;;;;4966996;28;20188;-64
2023/09/11 00:30:37;;;;;;;14.63;10.00;;;21.50;99.90;;;;;;4966275;28;20180;-64
2023/09/11 00:33:04;;;;;;;10.80;9.27;;;21.60;99.90;;;;;;4967241;28;20342;-64
2023/09/11 00:35:29;;;;;;;14.77;11.10;;;21.60;99.90;;;;;;4948303;28;21066;-64
2023/09/11 00:37:55;;;;;;;15.33;10.57;;;21.70;99.90;;;;;;4966701;28;20566;-64
2023/09/11 00:40:20;;;;;;;19.13;10.07;;;21.70;99.90;;;;;;4966826;28;20195;-64
2023/09/11 00:42:46;;;;;;;14.83;11.17;;;21.70;99.90;;;;;;4965957;28;20180;-64
2023/09/11 00:45:12;;;;;;;18.93;10.90;;;21.80;99.90;;;;;;4966170;28;20185;-64
2023/09/11 00:47:41;;;;;;;21.03;11.37;;;21.80;99.90;;;;;;4960238;28;20892;-64
2023/09/11 00:50:08;;;;;;;15.33;10.40;;;21.70;99.90;;;;;;4965139;28;20428;-64
2023/09/11 00:52:34;;;;;;;14.17;10.73;;;21.70;99.90;;;;;;4964913;28;20539;-64
2023/09/11 00:55:00;;;;;;;14.80;9.57;;;21.70;99.90;;;;;;4966544;28;20499;-64
2023/09/11 00:57:26;;;;;;;15.63;10.00;;;21.70;99.90;;;;;;4965842;28;20204;-64
2023/09/11 00:59:52;;;;;;;15.33;10.77;;;21.70;99.90;;;;;;4966324;28;20436;-64
2023/09/11 01:02:20;;;;;;;18.40;12.20;;;21.80;99.90;;;;;;4966552;28;20440;-64
2023/09/11 01:04:46;;;;;;;15.80;12.17;;;21.80;99.90;;;;;;4966078;28;20227;-64
2023/09/11 01:07:12;;;;;;;14.43;10.70;;;21.80;99.90;;;;;;4966112;28;20897;-64
2023/09/11 01:09:39;;;;;;;14.80;10.70;;;21.80;99.90;;;;;;4958324;28;20204;-64
2023/09/11 01:12:05;;;;;;;15.07;11.60;;;21.80;99.90;;;;;;4966342;28;20472;-64
2023/09/11 01:14:33;;;;;;;15.97;11.40;;;21.80;99.90;;;;;;4965298;28;20429;-64
2023/09/11 01:17:25;;;;;;;16.20;11.90;;;21.80;99.90;;;;;;4966416;28;20555;-64
2023/09/11 01:20:09;;;;;;;17.13;11.70;;;21.80;99.90;;;;;;4965891;28;21379;-64
2023/09/11 01:23:29;;;;;;;18.63;12.07;;;21.80;99.90;;;;;;4965537;28;20464;-64
2023/09/11 01:26:13;;;;;;;12.10;10.83;;;21.80;99.90;;;;;;4900724;29;20435;-64
2023/09/11 01:29:09;;;;;;;19.70;10.90;;;21.80;99.90;;;;;;4958318;28;20535;-64
2023/09/11 01:31:36;;;;;;;13.83;11.30;;;21.60;99.90;;;;;;4965052;28;20427;-64
2023/09/11 01:34:04;;;;;;;14.40;11.57;;;21.50;99.90;;;;;;4966264;28;20436;-64
2023/09/11 01:36:30;;;;;;;20.90;12.27;;;21.50;99.90;;;;;;4964475;28;20431;-64
2023/09/11 01:38:56;;;;;;;11.70;10.50;;;21.30;99.90;;;;;;4966466;28;20428;-64
2023/09/11 01:41:37;;;;;;;13.03;10.80;;;21.20;99.90;;;;;;4965356;28;20726;-64
2023/09/11 01:44:56;;;;;;;14.80;11.90;;;21.10;99.90;;;;;;4965780;28;20435;-64
2023/09/11 01:47:23;;;;;;;16.27;11.73;;;21.00;99.90;;;;;;4940564;28;21261;-64
2023/09/11 01:49:50;;;;;;;12.90;11.60;;;20.90;99.90;;;;;;4965508;28;20432;-64
2023/09/11 01:52:16;;;;;;;13.03;10.73;;;20.80;99.90;;;;;;4965320;28;20435;-64
2023/09/11 01:54:43;;;;;;;12.80;10.80;;;20.70;99.90;;;;;;4965154;28;20794;-64
2023/09/11 01:57:09;;;;;;;11.27;10.30;;;20.70;99.90;;;;;;4965055;28;20470;-64
2023/09/11 01:59:35;;;;;;;13.37;10.47;;;20.60;99.90;;;;;;4964757;28;20435;-64
2023/09/11 02:02:01;;;;;;;11.80;10.67;;;20.60;99.90;;;;;;4947784;28;20435;-64
2023/09/11 02:04:27;;;;;;;14.23;10.53;;;20.50;99.90;;;;;;4964609;28;20299;-64
2023/09/11 02:06:52;;;;;;;15.50;11.07;;;20.50;99.90;;;;;;4965120;28;20522;-64
2023/09/11 02:09:18;;;;;;;12.90;10.30;;;20.40;99.90;;;;;;4947766;28;20223;-64
2023/09/11 02:11:44;;;;;;;15.03;10.70;;;20.40;99.90;;;;;;4964541;28;20184;-64
2023/09/11 02:14:09;;;;;;;12.30;9.43;;;20.40;99.90;;;;;;4965035;28;20919;-64
2023/09/11 02:16:36;;;;;;;12.20;10.70;;;20.40;99.90;;;;;;4964232;28;20616;-64
2023/09/11 02:19:01;;;;;;;12.10;9.17;;;20.40;99.90;;;;;;4965202;28;20644;-64
2023/09/11 02:21:27;;;;;;;16.93;9.27;;;20.40;99.90;;;;;;4963884;28;20443;-64
2023/09/11 02:23:53;;;;;;;11.93;10.07;;;20.50;99.90;;;;;;4947874;28;20196;-64
2023/09/11 02:26:18;;;;;;;13.50;8.87;;;20.50;99.90;;;;;;4964510;28;20211;-64
2023/09/11 02:28:44;;;;;;;11.73;10.20;;;20.60;99.90;;;;;;4964327;28;20189;-64
2023/09/11 02:31:10;;;;;;;13.47;9.60;;;20.60;99.90;;;;;;4964773;28;20181;-64
2023/09/11 02:33:35;;;;;;;10.60;9.53;;;20.50;99.90;;;;;;4963967;28;20826;-64
2023/09/11 02:36:02;;;;;;;11.23;9.30;;;20.50;99.90;;;;;;4964709;28;20232;-64
2023/09/11 02:38:28;;;;;;;15.20;10.23;;;20.60;99.90;;;;;;4963868;28;20188;-64
2023/09/11 02:40:54;;;;;;;9.83;8.80;;;20.60;99.90;;;;;;4964623;28;20432;-64
2023/09/11 02:43:19;;;;;;;13.30;9.23;;;20.60;99.90;;;;;;4964087;28;20258;-64
2023/09/11 02:45:45;;;;;;;12.17;9.30;;;20.50;99.90;;;;;;4964408;28;20268;-64
2023/09/11 02:48:11;;;;;;;18.70;9.30;;;20.60;99.90;;;;;;4947352;28;20253;-64
2023/09/11 02:50:40;;;;;;;15.13;9.13;;;20.70;99.90;;;;;;4963670;28;20288;-64
2023/09/11 02:53:08;;;;;;;12.43;8.70;;;20.80;99.90;;;;;;4964741;28;20944;-64
2023/09/11 02:55:36;;;;;;;12.57;8.60;;;20.90;99.90;;;;;;4963719;28;20579;-64
2023/09/11 02:58:02;;;;;;;11.30;8.97;;;21.00;99.90;;;;;;4964194;28;20545;-64
2023/09/11 03:00:29;;;;;;;15.33;8.93;;;21.10;99.90;;;;;;4963402;28;21047;-64
2023/09/11 03:02:56;;;;;;;16.33;9.13;;;21.10;99.90;;;;;;4964498;28;20555;-64
2023/09/11 03:05:22;;;;;;;13.93;8.80;;;21.20;99.90;;;;;;4946464;28;20603;-64
2023/09/11 03:07:48;;;;;;;12.20;9.10;;;21.20;99.90;;;;;;4964574;28;20475;-64
2023/09/11 03:10:14;;;;;;;9.60;8.70;;;21.20;99.90;;;;;;4964327;28;20306;-64
2023/09/11 03:12:39;;;;;;;14.00;9.50;;;21.20;99.90;;;;;;4945735;28;20184;-64
2023/09/11 03:15:06;;;;;;;15.70;8.87;;;21.30;99.90;;;;;;4964128;28;20432;-64
2023/09/11 03:17:31;;;;;;;10.13;8.37;;;21.30;99.90;;;;;;4962834;28;20255;-64
2023/09/11 03:19:57;;;;;;;9.87;7.87;;;21.30;99.90;;;;;;4964283;28;20431;-64
2023/09/11 03:22:24;;;;;;;11.87;8.40;;;21.30;99.90;;;;;;4963612;28;20812;-64
2023/09/11 03:24:50;;;;;;;10.57;8.90;;;21.20;99.90;;;;;;4964203;28;20689;-64
2023/09/11 03:27:15;;;;;;;10.20;9.20;;;21.10;99.90;;;;;;4963327;28;20464;-64
2023/09/11 03:29:41;;;;;;;12.47;8.70;;;21.00;99.90;;;;;;4963991;28;20184;-64
2023/09/11 03:32:07;;;;;;;14.50;9.33;;;20.90;99.90;;;;;;4963906;28;20184;-64
2023/09/11 03:34:32;;;;;;;14.57;9.03;;;21.00;99.90;;;;;;4963022;28;20308;-64
2023/09/11 03:36:58;;;;;;;14.23;9.30;;;21.00;99.90;;;;;;4963789;28;20188;-64
2023/09/11 03:39:24;;;;;;;10.07;8.43;;;21.00;99.90;;;;;;4962992;28;20189;-64
2023/09/11 03:41:50;;;;;;;11.07;8.47;;;21.10;99.90;;;;;;4964103;28;20183;-64
2023/09/11 03:44:16;;;;;;;15.93;9.10;;;21.10;99.90;;;;;;4963861;28;20192;-64
2023/09/11 03:46:42;;;;;;;13.30;9.23;;;21.10;99.90;;;;;;4963497;28;20530;-64
2023/09/11 03:49:07;;;;;;;18.30;9.20;;;21.20;99.90;;;;;;4946999;28;20180;-64
2023/09/11 03:51:33;;;;;;;17.17;9.10;;;21.20;99.90;;;;;;4963360;28;20188;-64
2023/09/11 03:53:59;;;;;;;13.43;9.23;;;21.10;99.90;;;;;;4963949;28;20274;-64
2023/09/11 03:56:24;;;;;;;13.60;8.70;;;21.00;99.90;;;;;;4962794;28;20215;-64
2023/09/11 03:58:50;;;;;;;20.50;10.07;;;20.90;99.90;;;;;;4964095;28;20184;-64
2023/09/11 04:01:16;;;;;;;11.40;8.90;;;20.80;99.90;;;;;;4963164;28;20203;-64
2023/09/11 04:03:43;;;;;;;11.60;9.37;;;20.90;99.90;;;;;;4963739;28;20934;-64
2023/09/11 04:06:09;;;;;;;18.20;9.63;;;20.90;99.90;;;;;;4963579;28;20423;-64
2023/09/11 04:08:35;;;;;;;12.03;9.27;;;20.90;99.90;;;;;;4962947;28;20439;-64
2023/09/11 04:11:03;;;;;;;19.87;9.13;;;21.00;99.90;;;;;;4963574;28;20439;-64
2023/09/11 04:13:28;;;;;;;12.90;8.87;;;21.00;99.90;;;;;;4962649;28;20196;-64
2023/09/11 04:15:54;;;;;;;12.17;8.70;;;21.00;99.90;;;;;;4963557;28;20423;-64
2023/09/11 04:18:20;;;;;;;12.03;9.53;;;21.00;99.90;;;;;;4962698;28;20743;-64
2023/09/11 04:20:46;;;;;;;15.20;8.70;;;21.10;99.90;;;;;;4946342;28;20439;-65
2023/09/11 04:23:12;;;;;;;9.70;8.80;;;21.10;99.90;;;;;;4963651;28;20208;-65
2023/09/11 04:25:37;;;;;;;13.43;8.30;;;21.10;99.90;;;;;;4965622;28;20857;-64
2023/09/11 04:28:03;;;;;;;8.77;7.80;;;21.10;99.90;;;;;;4967085;28;20220;-64
2023/09/11 04:30:29;;;;;;;12.87;8.63;;;21.10;99.90;;;;;;4966198;28;20200;-64
2023/09/11 04:32:55;;;;;;;12.77;8.87;;;21.10;99.90;;;;;;4967345;28;20470;-64
2023/09/11 04:35:23;;;;;;;13.97;8.40;;;21.00;99.90;;;;;;4966041;28;20188;-64
2023/09/11 04:37:49;;;;;;;13.87;8.80;;;21.10;99.90;;;;;;4967505;28;20305;-64
2023/09/11 04:40:14;;;;;;;12.80;8.50;;;21.10;99.90;;;;;;4965846;28;20488;-64
2023/09/11 04:42:42;;;;;;;14.60;9.40;;;21.10;99.90;;;;;;4961281;28;20193;-64
2023/09/11 04:45:08;;;;;;;14.97;9.03;;;21.20;99.90;;;;;;4966705;28;20216;-64
2023/09/11 04:47:34;;;;;;;17.40;8.90;;;21.10;99.90;;;;;;4965668;28;20589;-64
2023/09/11 04:50:00;;;;;;;17.00;9.60;;;21.10;99.90;;;;;;4966952;28;21028;-64
2023/09/11 04:52:25;;;;;;;15.17;9.00;;;21.00;99.90;;;;;;4965391;28;20196;-64
2023/09/11 04:54:52;;;;;;;12.57;8.20;;;20.90;99.90;;;;;;4966700;28;20207;-64
2023/09/11 04:57:18;;;;;;;10.30;7.97;;;20.90;99.90;;;;;;4964933;28;20550;-64
2023/09/11 04:59:44;;;;;;;10.73;8.47;;;20.90;99.90;;;;;;4975403;28;20513;-64
2023/09/11 05:02:09;;;;;;;16.33;9.10;;;20.90;99.90;;;;;;4970187;28;20173;-64
2023/09/11 05:04:35;;;;;;;16.60;10.20;;;21.00;99.90;;;;;;4966017;28;21044;-64
2023/09/11 05:07:01;;;;;;;11.50;8.30;;;21.00;99.90;;;;;;4966127;28;20211;-64
2023/09/11 05:09:27;;;;;;;19.17;8.50;;;21.00;99.90;;;;;;4965353;28;20420;-64
2023/09/11 05:11:53;;;;;;;12.73;7.93;;;21.00;99.90;;;;;;4966698;28;20450;-64
2023/09/11 05:14:19;;;;;;;13.07;8.43;;;21.00;99.90;;;;;;4965894;28;20200;-64
2023/09/11 05:16:44;;;;;;;12.47;8.57;;;21.00;99.90;;;;;;4966268;28;20199;-64
2023/09/11 05:19:10;;;;;;;10.40;7.50;;;21.00;99.90;;;;;;4965490;28;20749;-63
2023/09/11 05:21:36;;;;;;;17.80;8.03;;;21.00;99.90;;;;;;4965111;28;20192;-64
2023/09/11 05:24:05;;;;;;;16.77;8.20;;;21.00;99.90;;;;;;4948754;28;20199;-64
2023/09/11 05:26:32;;;;;;;10.80;7.80;;;21.00;99.90;;;;;;4964276;28;20482;-64
2023/09/11 05:28:58;;;;;;;11.60;8.43;;;21.00;99.90;;;;;;4966090;28;20442;-64
2023/09/11 05:31:23;;;;;;;16.87;8.40;;;21.00;99.90;;;;;;4963976;28;20448;-64
2023/09/11 05:33:49;;;;;;;12.80;8.90;;;20.90;99.90;;;;;;4964148;28;20235;-64
2023/09/11 05:36:15;;;;;;;11.17;8.27;;;20.90;99.90;;;;;;4963434;28;21016;-64
2023/09/11 05:38:41;;;;;;;13.33;8.00;;;20.90;99.90;;;;;;4965972;28;20187;-64
2023/09/11 05:41:06;;;;;;;12.70;8.40;;;21.00;99.90;;;;;;4965665;28;21046;-64
2023/09/11 05:43:32;;;;;;;11.50;7.83;;;21.00;99.90;;;;;;4964821;28;20210;-64
2023/09/11 05:45:58;;;;;;;16.37;7.60;;;21.00;99.90;;;;;;4965473;28;20247;-64
2023/09/11 05:48:24;;;;;;;13.60;8.33;;;21.10;99.90;;;;;;4964698;28;20237;-64
2023/09/11 05:50:49;;;;;;;10.80;8.20;;;21.10;99.90;;;;;;4965809;28;20180;-64
2023/09/11 05:53:15;;;;;;;16.00;8.80;;;21.20;99.90;;;;;;4964113;28;21289;-64
2023/09/11 05:55:41;;;;;;;17.00;9.53;;;21.20;99.90;;;;;;4965492;28;20216;-64
2023/09/11 05:58:07;;;;;;;14.90;8.53;;;21.30;99.90;;;;;;4965564;28;20211;-64
2023/09/11 06:00:33;;;;;;;10.77;7.40;;;21.30;99.90;;;;;;4964650;28;20250;-64
2023/09/11 06:02:58;;;;;;;15.37;7.60;;;21.30;99.90;;;;;;4965589;28;20451;-64
2023/09/11 06:05:25;;;;;;;11.97;8.33;;;21.40;99.90;;;;;;4963738;28;20544;-64
2023/09/11 06:07:51;;;;;;;13.57;8.40;;;21.50;99.90;;;;;;4964240;28;20244;-64
2023/09/11 06:10:17;;;;;;;10.37;8.07;;;21.50;99.90;;;;;;4967227;28;20456;-64
2023/09/11 06:12:43;;;;;;;13.50;8.33;;;21.60;99.90;;;;;;4963412;28;20432;-64
2023/09/11 06:15:09;;;;;;;10.67;8.27;;;21.70;99.90;;;;;;4962976;28;20195;-64
2023/09/11 06:17:35;;;;;;;12.80;7.87;;;21.90;99.90;;;;;;4962914;28;20181;-64
2023/09/11 06:20:00;;;;;;;11.60;8.27;;;21.90;99.90;;;;;;4962788;28;20424;-63
2023/09/11 06:22:26;;;;;;;10.77;7.73;;;22.00;99.90;;;;;;4961965;28;20188;-63
2023/09/11 06:24:52;;;;;;;13.70;8.40;;;22.10;99.90;;;;;;4963159;28;20188;-64
2023/09/11 06:27:19;;;;;;;11.37;7.53;;;22.20;99.90;;;;;;4961872;28;20513;-63
2023/09/11 06:29:44;;;;;;;16.17;8.20;;;22.30;99.90;;;;;;4964271;28;20992;-63
2023/09/11 06:32:15;;;;;;;16.57;8.17;;;22.40;99.90;;;;;;4963733;28;20428;-62
2023/09/11 06:34:41;;;;;;;14.13;7.93;;;22.50;99.90;;;;;;4961994;28;20215;-63
2023/09/11 06:37:09;;;;;;;11.10;7.67;;;22.60;99.90;;;;;;4964779;28;20442;-63
2023/09/11 06:39:35;;;;;;;13.67;7.80;;;22.70;99.90;;;;;;4964670;28;21382;-64
2023/09/11 06:42:00;;;;;;;13.70;7.80;;;22.80;99.90;;;;;;4964758;28;20502;-64
2023/09/11 06:44:26;;;;;;;17.53;8.77;;;23.00;99.90;;;;;;4963825;28;20822;-64
2023/09/11 06:46:52;;;;;;;10.77;7.47;;;23.00;99.90;;;;;;4963881;28;20221;-64
2023/09/11 06:49:17;;;;;;;11.53;7.13;;;23.10;99.90;;;;;;4944996;28;20188;-64
2023/09/11 06:51:43;;;;;;;10.57;8.00;;;23.20;99.90;;;;;;4964156;28;20639;-64
2023/09/11 06:54:09;;;;;;;12.67;7.43;;;23.30;99.90;;;;;;4963797;28;20189;-64
2023/09/11 06:56:36;;;;;;;13.10;8.60;;;23.40;99.90;;;;;;4962787;28;20188;-63
2023/09/11 06:59:02;;;;;;;11.00;7.50;;;23.40;99.90;;;;;;4964444;28;20432;-64
2023/09/11 07:01:28;;;;;;;15.03;8.57;;;23.50;99.90;;;;;;4963157;28;20428;-63
2023/09/11 07:03:54;;;;;;;14.90;8.00;;;23.60;99.90;;;;;;4964653;28;20260;-64
2023/09/11 07:06:20;;;;;;;11.00;7.73;;;23.70;99.90;;;;;;4962980;28;20468;-64
2023/09/11 07:08:45;;;;;;;10.37;7.83;;;23.70;99.90;;;;;;4964527;28;20188;-64
2023/09/11 07:11:11;;;;;;;10.23;8.20;;;23.70;99.90;;;;;;4963511;28;20226;-63
2023/09/11 07:13:38;;;;;;;12.20;8.20;;;23.80;99.90;;;;;;4964254;28;20191;-64
2023/09/11 07:16:04;;;;;;;12.10;8.40;;;23.90;99.90;;;;;;4963862;28;20406;-64
2023/09/11 07:18:31;;;;;;;16.13;8.93;;;24.00;99.90;;;;;;4963702;28;20509;-63
2023/09/11 07:20:57;;;;;;;10.23;7.53;;;24.00;99.90;;;;;;4964471;28;20436;-64
2023/09/11 07:23:24;;;;;;;12.27;7.80;;;24.10;99.90;;;;;;4963491;28;20439;-63
2023/09/11 07:25:56;;;;;;;15.73;8.77;;;24.10;99.90;;;;;;4964814;28;20436;-64
2023/09/11 07:28:25;;;;;;;13.20;8.60;;;24.20;99.90;;;;;;4965478;28;20486;-64
2023/09/11 07:30:51;;;;;;;10.33;9.17;;;24.30;99.90;;;;;;4966662;28;20471;-64
2023/09/11 07:33:19;;;;;;;14.43;9.13;;;24.30;99.90;;;;;;4965476;28;20478;-63
2023/09/11 07:35:45;;;;;;;11.77;8.93;;;24.30;99.90;;;;;;4966339;28;20204;-64
2023/09/11 07:38:11;;;;;;;10.93;8.07;;;24.40;99.90;;;;;;4965103;28;20436;-64
2023/09/11 07:40:38;;;;;;;14.37;8.87;;;24.40;99.90;;;;;;4965671;28;20428;-64
2023/09/11 07:43:04;;;;;;;11.93;8.10;;;24.50;99.90;;;;;;4966399;28;20442;-64
2023/09/11 07:45:30;;;;;;;18.23;8.30;;;24.50;99.90;;;;;;4965801;28;20840;-64
2023/09/11 07:47:55;;;;;;;11.67;7.17;;;24.60;99.90;;;;;;4948784;28;20526;-63
2023/09/11 07:50:21;;;;;;;10.87;7.73;;;24.60;99.90;;;;;;4965531;28;20280;-64
2023/09/11 07:52:47;;;;;;;14.70;9.03;;;24.70;99.90;;;;;;4966446;28;20195;-63
2023/09/11 07:55:14;;;;;;;13.83;8.30;;;24.70;99.90;;;;;;4965479;28;20444;-63
2023/09/11 07:57:40;;;;;;;13.50;7.53;;;24.80;99.90;;;;;;4966100;28;20934;-64
2023/09/11 08:00:07;;;;;;;14.40;8.73;;;24.80;99.90;;;;;;4968040;28;20431;-64
2023/09/11 08:02:33;;;;;;;8.40;6.83;;;24.90;99.90;;;;;;4970072;28;20522;-64
2023/09/11 08:04:59;;;;;;;13.43;6.93;;;24.90;99.90;;;;;;4970260;28;20457;-64
2023/09/11 08:07:25;;;;;;;12.83;8.37;;;25.00;99.90;;;;;;4968940;28;20490;-63
2023/09/11 08:09:54;;;;;;;8.73;7.07;;;25.00;99.90;;;;;;4969872;28;20200;-64
2023/09/11 08:12:20;;;;;;;11.47;7.70;;;25.10;99.90;;;;;;4969077;28;20196;-63
2023/09/11 08:14:46;;;;;;;10.03;8.00;;;25.10;99.90;;;;;;4969961;28;20440;-63
2023/09/11 08:17:12;;;;;;;12.10;8.27;;;25.10;99.90;;;;;;4968668;28;20448;-64
2023/09/11 08:19:38;;;;;;;9.60;7.53;;;25.20;99.90;;;;;;4962403;28;20216;-64
2023/09/11 08:22:04;;;;;;;10.93;7.50;;;25.30;99.90;;;;;;4969319;28;20450;-64
2023/09/11 08:24:30;;;;;;;10.27;8.17;;;25.30;99.90;;;;;;4969455;28;20435;-64
2023/09/11 08:26:55;;;;;;;12.13;8.13;;;25.40;99.90;;;;;;4969513;28;20220;-64
2023/09/11 08:29:21;;;;;;;9.47;8.20;;;25.40;99.90;;;;;;4968870;28;20199;-63
2023/09/11 08:31:47;;;;;;;14.30;7.87;;;25.40;99.90;;;;;;4969851;28;20437;-64
2023/09/11 08:34:13;;;;;;;10.17;7.20;;;25.50;99.90;;;;;;4968511;28;20264;-63
2023/09/11 08:36:39;;;;;;;10.87;7.60;;;25.50;99.90;;;;;;4969459;28;20424;-64
2023/09/11 08:39:05;;;;;;;12.23;8.37;;;25.50;99.90;;;;;;4968958;28;20934;-63
2023/09/11 08:41:31;;;;;;;14.30;7.20;;;25.50;99.90;;;;;;4968915;28;20196;-64
2023/09/11 08:43:57;;;;;;;12.13;7.50;;;25.50;99.90;;;;;;4969391;28;20235;-64
2023/09/11 08:46:23;;;;;;;13.40;7.40;;;25.60;99.90;;;;;;4968393;28;20459;-64
2023/09/11 08:48:54;;;;;;;15.73;7.60;;;25.60;99.90;;;;;;4969742;28;20190;-64
2023/09/11 08:51:29;;;;;;;14.10;8.33;;;25.60;99.90;;;;;;4968141;28;20896;-63
2023/09/11 08:53:55;;;;;;;12.37;8.00;;;25.70;99.90;;;;;;4969350;28;20431;-64
2023/09/11 08:56:21;;;;;;;11.50;7.83;;;25.70;99.90;;;;;;4967947;28;20765;-63
2023/09/11 08:58:52;;;;;;;11.97;7.70;;;25.80;99.90;;;;;;4969417;28;20424;-64
2023/09/11 09:01:20;;;;;;;11.10;7.97;;;25.80;99.90;;;;;;4968232;28;20180;-64
2023/09/11 09:03:47;;;;;;;12.20;7.00;;;25.90;99.90;;;;;;4969483;28;20496;-64
2023/09/11 09:06:14;;;;;;;8.90;7.70;;;25.90;99.90;;;;;;4968208;28;20432;-63
2023/09/11 09:08:41;;;;;;;10.33;7.33;;;26.00;99.90;;;;;;4944689;28;20428;-64
2023/09/11 09:11:07;;;;;;;9.73;7.73;;;26.10;99.90;;;;;;4950740;28;20929;-64
2023/09/11 09:13:34;;;;;;;11.40;8.13;;;26.20;99.90;;;;;;4969155;28;20431;-63
2023/09/11 09:16:00;;;;;;;9.10;7.23;;;26.30;99.90;;;;;;4968427;28;20555;-64
2023/09/11 09:18:26;;;;;;;8.20;7.37;;;26.40;99.90;;;;;;4968744;28;20603;-63
2023/09/11 09:20:52;;;;;;;9.73;7.67;;;26.50;99.90;;;;;;4969203;28;20195;-64
2023/09/11 09:23:17;;;;;;;12.17;8.30;;;26.70;99.90;;;;;;4968241;28;20550;-64
2023/09/11 09:25:43;;;;;;;14.13;7.30;;;26.70;99.90;;;;;;4969018;28;20428;-64
2023/09/11 09:28:25;;;;;;;11.10;7.40;;;26.90;99.90;;;;;;4967912;28;20431;-64
2023/09/11 09:30:55;;;;;;;9.80;7.50;;;27.00;99.90;;;;;;4962888;28;20283;-64
2023/09/11 09:33:21;;;;;;;12.50;7.43;;;27.10;99.90;;;;;;4968414;28;20455;-63
2023/09/11 09:35:46;;;;;;;10.10;7.50;;;27.20;99.90;;;;;;4951420;28;20427;-64
2023/09/11 09:38:13;;;;;;;14.97;7.70;;;27.40;99.90;;;;;;4967921;28;20287;-63
2023/09/11 09:40:39;;;;;;;13.53;7.70;;;27.50;99.90;;;;;;4961403;28;20183;-64
2023/09/11 09:43:16;;;;;;;12.43;7.97;;;27.50;99.90;;;;;;4967720;28;20799;-64
2023/09/11 09:45:42;;;;;;;8.70;7.80;;;27.60;99.90;;;;;;4960795;28;20482;-64
2023/09/11 09:48:18;;;;;;;9.80;7.23;;;27.70;99.90;;;;;;4967439;28;20570;-64
2023/09/11 09:51:01;;;;;;;10.30;8.70;;;27.80;99.90;;;;;;4968605;28;20423;-64
2023/09/11 09:53:31;;;;;;;11.07;8.03;;;27.90;99.90;;;;;;4968185;28;20446;-64
2023/09/11 09:55:59;;;;;;;11.53;8.10;;;28.10;99.90;;;;;;4967837;28;20482;-64
2023/09/11 09:58:29;;;;;;;13.17;8.30;;;28.20;99.90;;;;;;4967911;28;20428;-64
2023/09/11 10:01:06;;;;;;;15.93;8.47;;;28.30;99.90;;;;;;4967268;28;20511;-64
2023/09/11 10:03:46;;;;;;;9.60;8.60;;;28.40;99.90;;;;;;4965674;28;20424;-64
2023/09/11 10:06:21;;;;;;;11.67;8.13;;;28.50;99.90;;;;;;4963059;28;20431;-63
2023/09/11 10:09:06;;;;;;;10.03;8.83;;;28.60;99.90;;;;;;4959080;28;20423;-63
2023/09/11 10:11:33;;;;;;;13.17;8.57;;;28.60;99.90;;;;;;4965112;28;20458;-63
2023/09/11 10:14:02;;;;;;;10.10;8.00;;;28.70;99.90;;;;;;4965461;28;20420;-63
2023/09/11 10:16:30;;;;;;;12.33;8.60;;;28.70;99.90;;;;;;4964400;28;20424;-63
2023/09/11 10:18:57;;;;;;;9.20;7.50;;;28.80;99.90;;;;;;4964503;28;20424;-63
2023/09/11 10:21:23;;;;;;;16.00;8.20;;;28.90;99.60;;;;;;4964618;28;20530;-63
2023/09/11 10:23:50;;;;;;;9.93;7.40;;;29.00;99.10;;;;;;4965374;28;20428;-63
2023/09/11 10:26:38;;;;;;;8.57;7.70;;;29.00;99.30;;;;;;4946983;28;20440;-64
2023/09/11 10:29:08;;;;;;;12.67;7.77;;;29.00;99.70;;;;;;4964328;28;20428;-63
2023/09/11 10:31:58;;;;;;;7.77;6.90;;;29.10;99.90;;;;;;4965133;28;20428;-63
2023/09/11 10:34:26;;;;;;;8.47;7.50;;;29.10;99.80;;;;;;4965425;28;20467;-63
2023/09/11 10:36:56;;;;;;;14.77;7.93;;;29.20;99.60;;;;;;4964720;28;20439;-63
2023/09/11 10:39:22;;;;;;;15.63;7.97;;;29.30;98.80;;;;;;4965086;28;20444;-63
2023/09/11 10:41:48;;;;;;;11.90;8.03;;;29.40;99.00;;;;;;4965315;28;20482;-64
2023/09/11 10:44:15;;;;;;;10.00;7.50;;;29.40;99.50;;;;;;4964287;28;21234;-63
2023/09/11 10:46:50;;;;;;;9.37;7.77;;;29.50;99.90;;;;;;4964712;28;20459;-63
2023/09/11 10:49:18;;;;;;;11.40;7.40;;;29.50;99.90;;;;;;4963953;28;20922;-63
2023/09/11 10:51:48;;;;;;;8.83;7.77;;;29.60;99.00;;;;;;4963933;28;20436;-63
2023/09/11 10:54:21;;;;;;;11.30;7.97;;;29.70;98.70;;;;;;4963813;28;20467;-63
2023/09/11 10:56:50;;;;;;;9.87;7.57;;;29.70;98.30;;;;;;4947485;28;20432;-63
2023/09/11 10:59:16;;;;;;;9.00;8.00;;;29.70;98.70;;;;;;4964217;28;20447;-63
2023/09/11 11:01:45;;;;;;;10.63;7.70;;;29.90;99.10;;;;;;4964806;28;20440;-63
2023/09/11 11:04:14;;;;;;;13.23;7.50;;;29.90;99.00;;;;;;4946820;28;20428;-63
2023/09/11 11:06:44;;;;;;;11.03;7.30;;;29.90;97.90;;;;;;4957116;28;20612;-63
2023/09/11 11:09:28;;;;;;;9.77;7.47;;;30.00;98.60;;;;;;4964132;28;20425;-64
2023/09/11 11:12:10;;;;;;;13.23;7.80;;;30.00;97.90;;;;;;4964062;28;20823;-63
2023/09/11 11:14:36;;;;;;;8.80;7.23;;;30.00;97.70;;;;;;4964712;28;20793;-63
2023/09/11 11:17:11;;;;;;;11.40;7.73;;;30.00;98.10;;;;;;4963685;28;20428;-64
2023/09/11 11:19:58;;;;;;;10.40;8.17;;;30.00;98.30;;;;;;4964637;28;20192;-63
2023/09/11 11:22:32;;;;;;;15.10;7.87;;;30.10;97.80;;;;;;4964064;28;20440;-63
2023/09/11 11:24:58;;;;;;;7.90;7.10;;;30.10;97.40;;;;;;4963657;28;20490;-63
2023/09/11 11:27:24;;;;;;;11.10;7.23;;;30.20;97.30;;;;;;4963568;28;20483;-63
2023/09/11 11:29:52;;;;;;;9.10;6.97;;;30.20;98.60;;;;;;4964087;28;20532;-63
2023/09/11 11:32:20;;;;;;;11.93;7.93;;;30.20;97.50;;;;;;4964272;28;20510;-64
2023/09/11 11:34:50;;;;;;;7.00;6.30;;;30.20;97.40;;;;;;4967941;28;20491;-64
2023/09/11 11:37:20;;;;;;;11.70;7.50;;;30.30;97.40;;;;;;4969238;28;20962;-63
2023/09/11 11:39:46;;;;;;;9.80;6.97;;;30.30;97.00;;;;;;4971349;28;20431;-63
2023/09/11 11:42:13;;;;;;;8.70;7.57;;;30.40;96.00;;;;;;4970261;28;20428;-64
2023/09/11 11:44:40;;;;;;;12.57;7.40;;;30.40;97.30;;;;;;4962803;28;20942;-64
2023/09/11 11:47:07;;;;;;;10.63;7.13;;;30.30;96.30;;;;;;4969608;28;20569;-63
2023/09/11 11:49:34;;;;;;;11.97;8.10;;;30.30;96.90;;;;;;4970240;28;20447;-63
2023/09/11 11:52:04;;;;;;;14.87;7.27;;;30.40;97.30;;;;;;4958730;28;21018;-64
2023/09/11 11:54:30;;;;;;;9.57;7.37;;;30.50;96.90;;;;;;4969785;28;20436;-63
2023/09/11 11:57:01;;;;;;;10.07;7.83;;;30.50;96.10;;;;;;4970656;28;20522;-63
2023/09/11 11:59:35;;;;;;;10.80;8.10;;;30.40;95.30;;;;;;4969816;28;20438;-63
2023/09/11 12:02:01;;;;;;;8.53;7.30;;;30.50;95.80;;;;;;4970670;28;20438;-63
2023/09/11 12:04:27;;;;;;;13.13;7.10;;;30.60;95.40;;;;;;4969625;28;20790;-63
2023/09/11 12:06:54;;;;;;;9.80;7.33;;;30.50;94.90;;;;;;4970340;28;20518;-63
2023/09/11 12:09:21;;;;;;;14.50;7.37;;;30.60;94.90;;;;;;4969467;28;20490;-63
2023/09/11 12:11:49;;;;;;;8.67;7.17;;;30.70;94.80;;;;;;4970617;28;20796;-63
2023/09/11 12:14:16;;;;;;;8.07;7.27;;;30.70;94.70;;;;;;4969626;28;20443;-63
2023/09/11 12:16:43;;;;;;;7.83;7.00;;;30.80;94.70;;;;;;4970380;28;20428;-63
2023/09/11 12:19:09;;;;;;;13.20;6.80;;;30.80;95.30;;;;;;4970042;28;20447;-63
2023/09/11 12:21:34;;;;;;;8.47;6.80;;;30.80;94.10;;;;;;4970181;28;20424;-63
2023/09/11 12:24:01;;;;;;;8.17;7.30;;;30.80;92.90;;;;;;4970442;28;20459;-63
2023/09/11 12:26:28;;;;;;;10.57;7.30;;;30.80;93.90;;;;;;4969543;28;20196;-63
2023/09/11 12:28:55;;;;;;;11.10;7.40;;;30.80;94.20;;;;;;4970365;28;20526;-63
2023/09/11 12:31:21;;;;;;;8.03;7.23;;;30.80;93.50;;;;;;4969148;28;20466;-64
2023/09/11 12:33:52;;;;;;;10.40;7.20;;;30.70;94.00;;;;;;4970263;28;20459;-63
2023/09/11 12:36:20;;;;;;;12.00;7.80;;;30.70;94.50;;;;;;4969091;28;20791;-63
2023/09/11 12:38:46;;;;;;;13.53;7.70;;;30.70;95.20;;;;;;4953143;28;20439;-63